sensor_id;sensor_type;location;lat;lon;timestamp;temperature;humidity
49777;DHT22;35673;51.482;7.436;2023-06-22T00:01:54;24.10;64.30
49777;DHT22;35673;51.482;7.436;2023-06-22T00:04:20;24.10;64.40
49777;DHT22;35673;51.482;7.436;2023-06-22T00:06:45;24.10;64.40
49777;DHT22;35673;51.482;7.436;2023-06-22T00:09:11;24.10;64.50
49777;DHT22;35673;51.482;7.436;2023-06-22T00:11:37;24.00;64.50
49777;DHT22;35673;51.482;7.436;2023-06-22T00:14:03;24.00;64.70
49777;DHT22;35673;51.482;7.436;2023-06-22T00:16:28;24.00;64.60
49777;DHT22;35673;51.482;7.436;2023-06-22T00:18:54;23.90;64.80
49777;DHT22;35673;51.482;7.436;2023-06-22T00:21:19;23.90;65.00
49777;DHT22;35673;51.482;7.436;2023-06-22T00:23:46;23.80;65.10
49777;DHT22;35673;51.482;7.436;2023-06-22T00:26:12;23.80;65.30
49777;DHT22;35673;51.482;7.436;2023-06-22T00:28:38;23.80;65.30
49777;DHT22;35673;51.482;7.436;2023-06-22T00:31:03;23.80;65.30
49777;DHT22;35673;51.482;7.436;2023-06-22T00:33:29;23.70;65.30
49777;DHT22;35673;51.482;7.436;2023-06-22T00:35:54;23.70;65.30
49777;DHT22;35673;51.482;7.436;2023-06-22T00:38:20;23.70;65.30
49777;DHT22;35673;51.482;7.436;2023-06-22T00:40:46;23.70;65.60
49777;DHT22;35673;51.482;7.436;2023-06-22T00:43:11;23.70;65.60
49777;DHT22;35673;51.482;7.436;2023-06-22T00:45:37;23.70;65.70
49777;DHT22;35673;51.482;7.436;2023-06-22T00:48:03;23.70;65.70
49777;DHT22;35673;51.482;7.436;2023-06-22T00:50:29;23.70;65.70
49777;DHT22;35673;51.482;7.436;2023-06-22T00:52:58;23.70;65.80
49777;DHT22;35673;51.482;7.436;2023-06-22T00:55:24;23.70;65.90
49777;DHT22;35673;51.482;7.436;2023-06-22T00:57:51;23.60;66.00
49777;DHT22;35673;51.482;7.436;2023-06-22T01:00:21;23.60;66.10
49777;DHT22;35673;51.482;7.436;2023-06-22T01:02:47;23.60;66.10
49777;DHT22;35673;51.482;7.436;2023-06-22T01:05:16;23.60;66.20
49777;DHT22;35673;51.482;7.436;2023-06-22T01:07:49;23.50;66.30
49777;DHT22;35673;51.482;7.436;2023-06-22T01:13:07;23.50;66.60
49777;DHT22;35673;51.482;7.436;2023-06-22T01:15:36;23.50;66.70
49777;DHT22;35673;51.482;7.436;2023-06-22T01:18:03;23.50;66.80
49777;DHT22;35673;51.482;7.436;2023-06-22T01:20:29;23.50;66.90
49777;DHT22;35673;51.482;7.436;2023-06-22T01:25:29;23.40;67.00
49777;DHT22;35673;51.482;7.436;2023-06-22T01:27:58;23.40;67.10
49777;DHT22;35673;51.482;7.436;2023-06-22T01:30:28;23.40;67.20
49777;DHT22;35673;51.482;7.436;2023-06-22T01:32:55;23.40;67.30
49777;DHT22;35673;51.482;7.436;2023-06-22T01:35:21;23.40;67.30
49777;DHT22;35673;51.482;7.436;2023-06-22T01:37:47;23.40;67.50
49777;DHT22;35673;51.482;7.436;2023-06-22T01:40:13;23.40;67.60
49777;DHT22;35673;51.482;7.436;2023-06-22T01:42:40;23.40;67.70
49777;DHT22;35673;51.482;7.436;2023-06-22T01:45:06;23.30;67.70
49777;DHT22;35673;51.482;7.436;2023-06-22T01:47:32;23.30;68.00
49777;DHT22;35673;51.482;7.436;2023-06-22T01:49:58;23.30;68.00
49777;DHT22;35673;51.482;7.436;2023-06-22T01:52:24;23.20;68.10
49777;DHT22;35673;51.482;7.436;2023-06-22T01:54:50;23.20;68.30
49777;DHT22;35673;51.482;7.436;2023-06-22T01:57:15;23.20;68.50
49777;DHT22;35673;51.482;7.436;2023-06-22T02:02:09;23.10;68.60
49777;DHT22;35673;51.482;7.436;2023-06-22T02:04:40;23.10;68.70
49777;DHT22;35673;51.482;7.436;2023-06-22T02:07:09;23.10;69.00
49777;DHT22;35673;51.482;7.436;2023-06-22T02:09:37;23.10;68.90
49777;DHT22;35673;51.482;7.436;2023-06-22T02:12:04;23.10;69.00
49777;DHT22;35673;51.482;7.436;2023-06-22T02:14:30;23.00;69.00
49777;DHT22;35673;51.482;7.436;2023-06-22T02:16:55;23.00;69.10
49777;DHT22;35673;51.482;7.436;2023-06-22T02:19:24;23.00;69.20
49777;DHT22;35673;51.482;7.436;2023-06-22T02:21:50;23.00;69.30
49777;DHT22;35673;51.482;7.436;2023-06-22T02:24:15;22.90;69.10
49777;DHT22;35673;51.482;7.436;2023-06-22T02:26:41;22.90;69.60
49777;DHT22;35673;51.482;7.436;2023-06-22T02:29:07;22.90;69.80
49777;DHT22;35673;51.482;7.436;2023-06-22T02:31:33;22.80;70.10
49777;DHT22;35673;51.482;7.436;2023-06-22T02:33:58;22.80;70.20
49777;DHT22;35673;51.482;7.436;2023-06-22T02:36:24;22.70;70.40
49777;DHT22;35673;51.482;7.436;2023-06-22T02:41:17;22.60;70.00
49777;DHT22;35673;51.482;7.436;2023-06-22T02:43:44;22.60;70.70
49777;DHT22;35673;51.482;7.436;2023-06-22T02:46:10;22.60;71.00
49777;DHT22;35673;51.482;7.436;2023-06-22T02:48:35;22.60;71.10
49777;DHT22;35673;51.482;7.436;2023-06-22T02:51:01;22.60;71.10
49777;DHT22;35673;51.482;7.436;2023-06-22T02:53:26;22.60;71.30
49777;DHT22;35673;51.482;7.436;2023-06-22T02:55:52;22.60;71.10
49777;DHT22;35673;51.482;7.436;2023-06-22T02:58:17;22.50;71.30
49777;DHT22;35673;51.482;7.436;2023-06-22T03:00:43;22.50;71.30
49777;DHT22;35673;51.482;7.436;2023-06-22T03:03:08;22.50;71.40
49777;DHT22;35673;51.482;7.436;2023-06-22T03:05:34;22.50;71.30
49777;DHT22;35673;51.482;7.436;2023-06-22T03:08:00;22.50;71.30
49777;DHT22;35673;51.482;7.436;2023-06-22T03:10:26;22.50;71.30
49777;DHT22;35673;51.482;7.436;2023-06-22T03:12:51;22.50;71.60
49777;DHT22;35673;51.482;7.436;2023-06-22T03:15:17;22.50;71.50
49777;DHT22;35673;51.482;7.436;2023-06-22T03:17:42;22.50;71.50
49777;DHT22;35673;51.482;7.436;2023-06-22T03:20:08;22.50;71.60
49777;DHT22;35673;51.482;7.436;2023-06-22T03:22:35;22.50;71.80
49777;DHT22;35673;51.482;7.436;2023-06-22T03:25:01;22.50;71.90
49777;DHT22;35673;51.482;7.436;2023-06-22T03:27:26;22.50;72.30
49777;DHT22;35673;51.482;7.436;2023-06-22T03:29:51;22.50;72.50
49777;DHT22;35673;51.482;7.436;2023-06-22T03:32:17;22.40;72.50
49777;DHT22;35673;51.482;7.436;2023-06-22T03:34:42;22.40;72.50
49777;DHT22;35673;51.482;7.436;2023-06-22T03:37:13;22.40;72.80
49777;DHT22;35673;51.482;7.436;2023-06-22T03:39:38;22.40;72.80
49777;DHT22;35673;51.482;7.436;2023-06-22T03:42:04;22.40;72.70
49777;DHT22;35673;51.482;7.436;2023-06-22T03:44:30;22.40;72.90
49777;DHT22;35673;51.482;7.436;2023-06-22T03:46:55;22.40;72.80
49777;DHT22;35673;51.482;7.436;2023-06-22T03:49:20;22.40;72.90
49777;DHT22;35673;51.482;7.436;2023-06-22T03:51:46;22.40;72.30
49777;DHT22;35673;51.482;7.436;2023-06-22T03:54:11;22.40;72.90
49777;DHT22;35673;51.482;7.436;2023-06-22T03:56:37;22.40;72.90
49777;DHT22;35673;51.482;7.436;2023-06-22T03:59:03;22.40;73.10
49777;DHT22;35673;51.482;7.436;2023-06-22T04:01:29;22.40;73.10
49777;DHT22;35673;51.482;7.436;2023-06-22T04:03:54;22.40;73.80
49777;DHT22;35673;51.482;7.436;2023-06-22T04:06:19;22.50;73.10
49777;DHT22;35673;51.482;7.436;2023-06-22T04:08:45;22.50;73.10
49777;DHT22;35673;51.482;7.436;2023-06-22T04:11:13;22.50;72.80
49777;DHT22;35673;51.482;7.436;2023-06-22T04:13:38;22.60;72.80
49777;DHT22;35673;51.482;7.436;2023-06-22T04:16:04;22.60;72.50
49777;DHT22;35673;51.482;7.436;2023-06-22T04:18:29;22.60;72.30
49777;DHT22;35673;51.482;7.436;2023-06-22T04:20:55;22.60;72.60
49777;DHT22;35673;51.482;7.436;2023-06-22T04:23:20;22.60;72.30
49777;DHT22;35673;51.482;7.436;2023-06-22T04:25:46;22.60;72.70
49777;DHT22;35673;51.482;7.436;2023-06-22T04:28:11;22.60;72.60
49777;DHT22;35673;51.482;7.436;2023-06-22T04:30:38;22.60;72.60
49777;DHT22;35673;51.482;7.436;2023-06-22T04:33:14;22.70;72.50
49777;DHT22;35673;51.482;7.436;2023-06-22T04:35:40;22.70;72.50
49777;DHT22;35673;51.482;7.436;2023-06-22T04:38:07;22.60;72.60
49777;DHT22;35673;51.482;7.436;2023-06-22T04:40:32;22.70;72.70
49777;DHT22;35673;51.482;7.436;2023-06-22T04:42:58;22.70;72.50
49777;DHT22;35673;51.482;7.436;2023-06-22T04:45:27;22.70;72.40
49777;DHT22;35673;51.482;7.436;2023-06-22T04:47:53;22.70;72.40
49777;DHT22;35673;51.482;7.436;2023-06-22T04:50:18;22.70;72.30
49777;DHT22;35673;51.482;7.436;2023-06-22T04:52:46;22.70;72.30
49777;DHT22;35673;51.482;7.436;2023-06-22T04:55:12;22.70;72.40
49777;DHT22;35673;51.482;7.436;2023-06-22T04:57:37;22.70;72.60
49777;DHT22;35673;51.482;7.436;2023-06-22T05:00:05;22.60;72.60
49777;DHT22;35673;51.482;7.436;2023-06-22T05:02:42;22.60;72.80
49777;DHT22;35673;51.482;7.436;2023-06-22T05:05:08;22.60;72.40
49777;DHT22;35673;51.482;7.436;2023-06-22T05:07:34;22.50;72.70
49777;DHT22;35673;51.482;7.436;2023-06-22T05:10:00;22.50;72.70
49777;DHT22;35673;51.482;7.436;2023-06-22T05:12:27;22.60;72.70
49777;DHT22;35673;51.482;7.436;2023-06-22T05:14:52;22.50;72.50
49777;DHT22;35673;51.482;7.436;2023-06-22T05:17:17;22.60;72.70
49777;DHT22;35673;51.482;7.436;2023-06-22T05:19:44;22.60;72.40
49777;DHT22;35673;51.482;7.436;2023-06-22T05:22:16;22.60;72.80
49777;DHT22;35673;51.482;7.436;2023-06-22T05:24:42;22.60;72.90
49777;DHT22;35673;51.482;7.436;2023-06-22T05:27:08;22.60;72.70
49777;DHT22;35673;51.482;7.436;2023-06-22T05:29:33;22.60;73.30
49777;DHT22;35673;51.482;7.436;2023-06-22T05:31:59;22.60;72.70
49777;DHT22;35673;51.482;7.436;2023-06-22T05:34:24;22.60;73.00
49777;DHT22;35673;51.482;7.436;2023-06-22T05:36:50;22.60;73.00
49777;DHT22;35673;51.482;7.436;2023-06-22T05:39:15;22.70;73.00
49777;DHT22;35673;51.482;7.436;2023-06-22T05:41:41;22.70;72.90
49777;DHT22;35673;51.482;7.436;2023-06-22T05:44:06;22.70;72.40
49777;DHT22;35673;51.482;7.436;2023-06-22T05:46:32;22.70;72.80
49777;DHT22;35673;51.482;7.436;2023-06-22T05:48:58;22.70;72.70
49777;DHT22;35673;51.482;7.436;2023-06-22T05:51:23;22.80;72.80
49777;DHT22;35673;51.482;7.436;2023-06-22T05:53:48;22.90;73.00
49777;DHT22;35673;51.482;7.436;2023-06-22T05:56:15;22.90;72.60
49777;DHT22;35673;51.482;7.436;2023-06-22T05:58:41;22.90;72.70
49777;DHT22;35673;51.482;7.436;2023-06-22T06:01:06;23.00;73.30
49777;DHT22;35673;51.482;7.436;2023-06-22T06:03:32;23.00;72.60
49777;DHT22;35673;51.482;7.436;2023-06-22T06:05:57;23.00;72.80
49777;DHT22;35673;51.482;7.436;2023-06-22T06:08:23;23.10;72.40
49777;DHT22;35673;51.482;7.436;2023-06-22T06:10:48;23.10;72.80
49777;DHT22;35673;51.482;7.436;2023-06-22T06:13:14;23.10;72.80
49777;DHT22;35673;51.482;7.436;2023-06-22T06:15:39;23.20;72.70
49777;DHT22;35673;51.482;7.436;2023-06-22T06:18:05;23.20;72.90
49777;DHT22;35673;51.482;7.436;2023-06-22T06:20:31;23.30;73.00
49777;DHT22;35673;51.482;7.436;2023-06-22T06:22:57;23.30;73.10
49777;DHT22;35673;51.482;7.436;2023-06-22T06:25:23;23.40;73.20
49777;DHT22;35673;51.482;7.436;2023-06-22T06:27:49;23.40;73.10
49777;DHT22;35673;51.482;7.436;2023-06-22T06:30:15;23.50;73.20
49777;DHT22;35673;51.482;7.436;2023-06-22T06:32:41;23.40;73.30
49777;DHT22;35673;51.482;7.436;2023-06-22T06:35:07;23.40;73.60
49777;DHT22;35673;51.482;7.436;2023-06-22T06:37:37;23.40;73.70
49777;DHT22;35673;51.482;7.436;2023-06-22T06:40:09;23.50;73.90
49777;DHT22;35673;51.482;7.436;2023-06-22T06:42:53;23.50;74.00
49777;DHT22;35673;51.482;7.436;2023-06-22T06:45:22;23.50;73.90
49777;DHT22;35673;51.482;7.436;2023-06-22T06:47:48;23.60;74.10
49777;DHT22;35673;51.482;7.436;2023-06-22T06:50:13;23.60;74.10
49777;DHT22;35673;51.482;7.436;2023-06-22T06:52:39;23.60;73.90
49777;DHT22;35673;51.482;7.436;2023-06-22T06:55:05;23.60;73.30
49777;DHT22;35673;51.482;7.436;2023-06-22T06:57:40;23.60;73.90
49777;DHT22;35673;51.482;7.436;2023-06-22T07:00:06;23.70;74.20
49777;DHT22;35673;51.482;7.436;2023-06-22T07:02:35;23.70;74.10
49777;DHT22;35673;51.482;7.436;2023-06-22T07:05:00;23.70;73.50
49777;DHT22;35673;51.482;7.436;2023-06-22T07:07:29;23.60;73.90
49777;DHT22;35673;51.482;7.436;2023-06-22T07:09:55;23.50;74.50
49777;DHT22;35673;51.482;7.436;2023-06-22T07:12:20;23.50;74.90
49777;DHT22;35673;51.482;7.436;2023-06-22T07:14:46;23.50;75.10
49777;DHT22;35673;51.482;7.436;2023-06-22T07:17:11;23.50;75.10
49777;DHT22;35673;51.482;7.436;2023-06-22T07:19:37;23.50;75.40
49777;DHT22;35673;51.482;7.436;2023-06-22T07:22:02;23.50;75.60
49777;DHT22;35673;51.482;7.436;2023-06-22T07:24:28;23.60;75.60
49777;DHT22;35673;51.482;7.436;2023-06-22T07:26:53;23.50;75.80
49777;DHT22;35673;51.482;7.436;2023-06-22T07:29:19;23.50;76.10
49777;DHT22;35673;51.482;7.436;2023-06-22T07:31:46;23.50;76.10
49777;DHT22;35673;51.482;7.436;2023-06-22T07:34:12;23.50;76.20
49777;DHT22;35673;51.482;7.436;2023-06-22T07:36:37;23.50;76.40
49777;DHT22;35673;51.482;7.436;2023-06-22T07:39:03;23.50;76.70
49777;DHT22;35673;51.482;7.436;2023-06-22T07:41:29;23.50;76.50
49777;DHT22;35673;51.482;7.436;2023-06-22T07:43:55;23.50;76.40
49777;DHT22;35673;51.482;7.436;2023-06-22T07:46:20;23.50;76.40
49777;DHT22;35673;51.482;7.436;2023-06-22T07:48:46;23.50;76.30
49777;DHT22;35673;51.482;7.436;2023-06-22T07:51:11;23.60;76.30
49777;DHT22;35673;51.482;7.436;2023-06-22T07:53:43;23.60;76.50
49777;DHT22;35673;51.482;7.436;2023-06-22T07:56:10;23.70;76.40
49777;DHT22;35673;51.482;7.436;2023-06-22T07:58:35;23.70;77.40
49777;DHT22;35673;51.482;7.436;2023-06-22T08:01:01;23.80;77.40
49777;DHT22;35673;51.482;7.436;2023-06-22T08:03:27;23.90;77.50
49777;DHT22;35673;51.482;7.436;2023-06-22T08:05:53;24.00;77.60
49777;DHT22;35673;51.482;7.436;2023-06-22T08:08:18;24.00;77.90
49777;DHT22;35673;51.482;7.436;2023-06-22T08:10:43;24.00;77.10
49777;DHT22;35673;51.482;7.436;2023-06-22T08:13:09;23.90;78.00
49777;DHT22;35673;51.482;7.436;2023-06-22T08:15:35;24.00;77.60
49777;DHT22;35673;51.482;7.436;2023-06-22T08:18:00;24.00;77.20
49777;DHT22;35673;51.482;7.436;2023-06-22T08:20:26;24.00;76.20
49777;DHT22;35673;51.482;7.436;2023-06-22T08:22:53;24.00;77.10
49777;DHT22;35673;51.482;7.436;2023-06-22T08:25:18;24.10;76.90
49777;DHT22;35673;51.482;7.436;2023-06-22T08:27:47;24.20;77.00
49777;DHT22;35673;51.482;7.436;2023-06-22T08:30:15;24.30;76.50
49777;DHT22;35673;51.482;7.436;2023-06-22T08:32:41;24.50;76.30
49777;DHT22;35673;51.482;7.436;2023-06-22T08:35:06;24.70;76.10
49777;DHT22;35673;51.482;7.436;2023-06-22T08:37:33;24.80;74.80
49777;DHT22;35673;51.482;7.436;2023-06-22T08:40:01;25.10;75.30
49777;DHT22;35673;51.482;7.436;2023-06-22T08:42:27;25.60;75.00
49777;DHT22;35673;51.482;7.436;2023-06-22T08:44:52;25.80;73.70
49777;DHT22;35673;51.482;7.436;2023-06-22T08:47:19;26.10;73.50
49777;DHT22;35673;51.482;7.436;2023-06-22T08:49:45;26.10;72.70
49777;DHT22;35673;51.482;7.436;2023-06-22T08:52:10;26.20;71.80
49777;DHT22;35673;51.482;7.436;2023-06-22T08:54:35;26.30;72.10
49777;DHT22;35673;51.482;7.436;2023-06-22T08:57:02;26.40;72.00
49777;DHT22;35673;51.482;7.436;2023-06-22T08:59:27;26.60;71.80
49777;DHT22;35673;51.482;7.436;2023-06-22T09:01:53;26.80;71.70
49777;DHT22;35673;51.482;7.436;2023-06-22T09:04:18;26.90;71.10
49777;DHT22;35673;51.482;7.436;2023-06-22T09:06:47;26.90;71.10
49777;DHT22;35673;51.482;7.436;2023-06-22T09:09:13;27.00;71.00
49777;DHT22;35673;51.482;7.436;2023-06-22T09:11:39;26.80;70.20
49777;DHT22;35673;51.482;7.436;2023-06-22T09:14:05;26.80;70.50
49777;DHT22;35673;51.482;7.436;2023-06-22T09:16:30;26.70;70.10
49777;DHT22;35673;51.482;7.436;2023-06-22T09:18:56;26.70;70.30
49777;DHT22;35673;51.482;7.436;2023-06-22T09:21:21;26.80;71.00
49777;DHT22;35673;51.482;7.436;2023-06-22T09:23:47;26.80;70.80
49777;DHT22;35673;51.482;7.436;2023-06-22T09:26:17;26.80;70.90
49777;DHT22;35673;51.482;7.436;2023-06-22T09:28:42;26.90;71.10
49777;DHT22;35673;51.482;7.436;2023-06-22T09:31:07;26.90;70.50
49777;DHT22;35673;51.482;7.436;2023-06-22T09:33:33;27.00;71.10
49777;DHT22;35673;51.482;7.436;2023-06-22T09:35:58;27.10;70.70
49777;DHT22;35673;51.482;7.436;2023-06-22T09:38:24;27.10;70.60
49777;DHT22;35673;51.482;7.436;2023-06-22T09:40:50;27.20;70.30
49777;DHT22;35673;51.482;7.436;2023-06-22T09:43:16;27.30;69.80
49777;DHT22;35673;51.482;7.436;2023-06-22T09:45:42;27.30;69.40
49777;DHT22;35673;51.482;7.436;2023-06-22T09:48:08;27.30;69.40
49777;DHT22;35673;51.482;7.436;2023-06-22T09:50:35;27.30;69.20
49777;DHT22;35673;51.482;7.436;2023-06-22T09:53:00;27.40;69.60
49777;DHT22;35673;51.482;7.436;2023-06-22T09:55:26;27.50;69.50
49777;DHT22;35673;51.482;7.436;2023-06-22T09:57:51;27.60;69.40
49777;DHT22;35673;51.482;7.436;2023-06-22T10:00:17;27.70;69.40
49777;DHT22;35673;51.482;7.436;2023-06-22T10:02:44;27.90;69.20
49777;DHT22;35673;51.482;7.436;2023-06-22T10:05:10;28.10;68.80
49777;DHT22;35673;51.482;7.436;2023-06-22T10:07:35;28.20;68.50
49777;DHT22;35673;51.482;7.436;2023-06-22T10:10:05;28.20;68.20
49777;DHT22;35673;51.482;7.436;2023-06-22T10:12:31;28.20;68.50
49777;DHT22;35673;51.482;7.436;2023-06-22T10:14:56;28.20;68.70
49777;DHT22;35673;51.482;7.436;2023-06-22T10:17:22;28.30;68.80
49777;DHT22;35673;51.482;7.436;2023-06-22T10:19:47;28.30;68.40
49777;DHT22;35673;51.482;7.436;2023-06-22T10:22:13;28.30;68.60
49777;DHT22;35673;51.482;7.436;2023-06-22T10:24:38;28.40;69.00
49777;DHT22;35673;51.482;7.436;2023-06-22T10:29:35;28.60;68.40
49777;DHT22;35673;51.482;7.436;2023-06-22T10:32:01;28.60;69.10
49777;DHT22;35673;51.482;7.436;2023-06-22T10:34:26;28.60;69.40
49777;DHT22;35673;51.482;7.436;2023-06-22T10:36:53;28.60;69.40
49777;DHT22;35673;51.482;7.436;2023-06-22T10:39:19;28.70;69.10
49777;DHT22;35673;51.482;7.436;2023-06-22T10:41:44;28.70;69.10
49777;DHT22;35673;51.482;7.436;2023-06-22T10:44:10;28.80;69.40
49777;DHT22;35673;51.482;7.436;2023-06-22T10:46:36;28.60;68.60
49777;DHT22;35673;51.482;7.436;2023-06-22T10:49:01;28.60;69.40
49777;DHT22;35673;51.482;7.436;2023-06-22T10:51:27;28.60;69.40
49777;DHT22;35673;51.482;7.436;2023-06-22T10:53:53;28.70;69.30
49777;DHT22;35673;51.482;7.436;2023-06-22T10:56:19;28.70;69.00
49777;DHT22;35673;51.482;7.436;2023-06-22T10:58:44;28.80;69.30
49777;DHT22;35673;51.482;7.436;2023-06-22T11:01:10;28.80;69.10
49777;DHT22;35673;51.482;7.436;2023-06-22T11:03:36;28.70;68.70
49777;DHT22;35673;51.482;7.436;2023-06-22T11:06:01;28.50;68.60
49777;DHT22;35673;51.482;7.436;2023-06-22T11:08:27;28.30;69.10
49777;DHT22;35673;51.482;7.436;2023-06-22T11:10:52;28.20;69.30
49777;DHT22;35673;51.482;7.436;2023-06-22T11:13:18;28.00;69.10
49777;DHT22;35673;51.482;7.436;2023-06-22T11:15:43;27.80;69.80
49777;DHT22;35673;51.482;7.436;2023-06-22T11:18:09;27.70;69.90
49777;DHT22;35673;51.482;7.436;2023-06-22T11:20:34;27.60;70.10
49777;DHT22;35673;51.482;7.436;2023-06-22T11:23:06;27.50;70.10
49777;DHT22;35673;51.482;7.436;2023-06-22T11:25:32;27.50;70.90
49777;DHT22;35673;51.482;7.436;2023-06-22T11:27:57;27.30;73.30
49777;DHT22;35673;51.482;7.436;2023-06-22T11:30:23;27.20;74.20
49777;DHT22;35673;51.482;7.436;2023-06-22T11:32:48;27.00;75.70
49777;DHT22;35673;51.482;7.436;2023-06-22T11:35:14;26.90;76.80
49777;DHT22;35673;51.482;7.436;2023-06-22T11:37:39;26.80;78.30
49777;DHT22;35673;51.482;7.436;2023-06-22T11:40:05;26.60;79.80
49777;DHT22;35673;51.482;7.436;2023-06-22T11:42:32;26.40;80.20
49777;DHT22;35673;51.482;7.436;2023-06-22T11:44:57;26.20;80.60
49777;DHT22;35673;51.482;7.436;2023-06-22T11:47:23;26.00;82.60
49777;DHT22;35673;51.482;7.436;2023-06-22T11:49:48;25.80;83.00
49777;DHT22;35673;51.482;7.436;2023-06-22T11:52:14;25.70;84.60
49777;DHT22;35673;51.482;7.436;2023-06-22T11:54:39;25.60;86.70
49777;DHT22;35673;51.482;7.436;2023-06-22T11:57:05;25.50;89.50
49777;DHT22;35673;51.482;7.436;2023-06-22T11:59:30;25.40;91.10
49777;DHT22;35673;51.482;7.436;2023-06-22T12:01:56;25.40;91.60
49777;DHT22;35673;51.482;7.436;2023-06-22T12:04:23;25.30;93.60
49777;DHT22;35673;51.482;7.436;2023-06-22T12:06:48;25.20;95.10
49777;DHT22;35673;51.482;7.436;2023-06-22T12:09:14;25.10;95.80
49777;DHT22;35673;51.482;7.436;2023-06-22T12:11:39;25.00;96.70
49777;DHT22;35673;51.482;7.436;2023-06-22T12:14:05;24.90;97.60
49777;DHT22;35673;51.482;7.436;2023-06-22T12:16:30;24.90;98.00
49777;DHT22;35673;51.482;7.436;2023-06-22T12:18:56;24.80;97.80
49777;DHT22;35673;51.482;7.436;2023-06-22T12:21:21;24.70;99.90
49777;DHT22;35673;51.482;7.436;2023-06-22T12:23:47;24.70;99.70
49777;DHT22;35673;51.482;7.436;2023-06-22T12:26:12;24.60;99.90
49777;DHT22;35673;51.482;7.436;2023-06-22T12:28:38;24.60;99.90
49777;DHT22;35673;51.482;7.436;2023-06-22T12:31:03;24.60;99.90
49777;DHT22;35673;51.482;7.436;2023-06-22T12:33:29;24.60;99.90
49777;DHT22;35673;51.482;7.436;2023-06-22T12:35:56;24.60;99.90
49777;DHT22;35673;51.482;7.436;2023-06-22T12:38:21;24.60;99.90
49777;DHT22;35673;51.482;7.436;2023-06-22T12:40:47;24.60;99.90
49777;DHT22;35673;51.482;7.436;2023-06-22T12:43:14;24.50;99.90
49777;DHT22;35673;51.482;7.436;2023-06-22T12:45:40;24.50;99.90
49777;DHT22;35673;51.482;7.436;2023-06-22T12:48:05;24.50;99.90
49777;DHT22;35673;51.482;7.436;2023-06-22T12:50:31;24.40;99.90
49777;DHT22;35673;51.482;7.436;2023-06-22T12:52:56;24.30;99.90
49777;DHT22;35673;51.482;7.436;2023-06-22T12:55:22;24.20;99.90
49777;DHT22;35673;51.482;7.436;2023-06-22T12:57:47;24.10;99.90
49777;DHT22;35673;51.482;7.436;2023-06-22T13:00:13;24.10;99.90
49777;DHT22;35673;51.482;7.436;2023-06-22T13:02:38;24.10;99.90
49777;DHT22;35673;51.482;7.436;2023-06-22T13:05:04;24.20;99.90
49777;DHT22;35673;51.482;7.436;2023-06-22T13:07:32;24.40;99.90
49777;DHT22;35673;51.482;7.436;2023-06-22T13:09:58;24.60;99.90
49777;DHT22;35673;51.482;7.436;2023-06-22T13:12:23;24.90;99.90
49777;DHT22;35673;51.482;7.436;2023-06-22T13:14:49;25.10;99.90
49777;DHT22;35673;51.482;7.436;2023-06-22T13:17:14;25.20;99.90
49777;DHT22;35673;51.482;7.436;2023-06-22T13:19:40;25.30;99.70
49777;DHT22;35673;51.482;7.436;2023-06-22T13:22:09;25.50;99.10
49777;DHT22;35673;51.482;7.436;2023-06-22T13:24:50;25.70;99.30
49777;DHT22;35673;51.482;7.436;2023-06-22T13:27:16;26.00;98.20
49777;DHT22;35673;51.482;7.436;2023-06-22T13:29:41;26.10;96.30
49777;DHT22;35673;51.482;7.436;2023-06-22T13:32:07;26.40;97.10
49777;DHT22;35673;51.482;7.436;2023-06-22T13:34:32;27.30;95.80
49777;DHT22;35673;51.482;7.436;2023-06-22T13:36:57;28.00;94.20
49777;DHT22;35673;51.482;7.436;2023-06-22T13:39:23;28.20;91.60
49777;DHT22;35673;51.482;7.436;2023-06-22T13:41:48;28.80;90.50
49777;DHT22;35673;51.482;7.436;2023-06-22T13:44:14;29.80;84.50
49777;DHT22;35673;51.482;7.436;2023-06-22T13:46:39;30.40;81.70
49777;DHT22;35673;51.482;7.436;2023-06-22T13:49:05;31.30;80.30
49777;DHT22;35673;51.482;7.436;2023-06-22T13:51:30;30.90;76.10
49777;DHT22;35673;51.482;7.436;2023-06-22T13:53:56;29.90;76.00
49777;DHT22;35673;51.482;7.436;2023-06-22T13:56:21;29.10;78.70
49777;DHT22;35673;51.482;7.436;2023-06-22T13:58:47;28.40;80.00
49777;DHT22;35673;51.482;7.436;2023-06-22T14:01:12;27.80;80.60
49777;DHT22;35673;51.482;7.436;2023-06-22T14:03:38;27.40;81.20
49777;DHT22;35673;51.482;7.436;2023-06-22T14:06:03;27.00;83.90
49777;DHT22;35673;51.482;7.436;2023-06-22T14:08:29;26.70;84.80
49777;DHT22;35673;51.482;7.436;2023-06-22T14:10:54;26.40;85.20
49777;DHT22;35673;51.482;7.436;2023-06-22T14:13:20;26.30;86.50
49777;DHT22;35673;51.482;7.436;2023-06-22T14:15:46;26.30;87.40
49777;DHT22;35673;51.482;7.436;2023-06-22T14:18:13;26.30;88.30
49777;DHT22;35673;51.482;7.436;2023-06-22T14:20:39;26.30;89.60
49777;DHT22;35673;51.482;7.436;2023-06-22T14:23:05;26.30;88.40
49777;DHT22;35673;51.482;7.436;2023-06-22T14:25:30;26.30;89.20
49777;DHT22;35673;51.482;7.436;2023-06-22T14:27:56;26.30;90.40
49777;DHT22;35673;51.482;7.436;2023-06-22T14:30:21;26.30;90.40
49777;DHT22;35673;51.482;7.436;2023-06-22T14:32:47;26.40;90.30
49777;DHT22;35673;51.482;7.436;2023-06-22T14:35:12;26.40;89.90
49777;DHT22;35673;51.482;7.436;2023-06-22T14:37:38;26.40;89.40
49777;DHT22;35673;51.482;7.436;2023-06-22T14:40:03;26.20;88.00
49777;DHT22;35673;51.482;7.436;2023-06-22T14:42:29;26.10;88.80
49777;DHT22;35673;51.482;7.436;2023-06-22T14:44:55;25.80;88.20
49777;DHT22;35673;51.482;7.436;2023-06-22T14:47:21;25.70;89.80
49777;DHT22;35673;51.482;7.436;2023-06-22T14:49:46;25.70;90.10
49777;DHT22;35673;51.482;7.436;2023-06-22T14:52:11;25.60;90.60
49777;DHT22;35673;51.482;7.436;2023-06-22T14:54:37;25.50;91.10
49777;DHT22;35673;51.482;7.436;2023-06-22T14:57:02;25.40;91.10
49777;DHT22;35673;51.482;7.436;2023-06-22T14:59:28;25.30;90.90
49777;DHT22;35673;51.482;7.436;2023-06-22T15:01:53;25.40;92.20
49777;DHT22;35673;51.482;7.436;2023-06-22T15:04:19;26.80;91.50
49777;DHT22;35673;51.482;7.436;2023-06-22T15:06:44;28.50;89.30
49777;DHT22;35673;51.482;7.436;2023-06-22T15:09:10;28.50;82.90
49777;DHT22;35673;51.482;7.436;2023-06-22T15:11:35;28.10;81.90
49777;DHT22;35673;51.482;7.436;2023-06-22T15:14:01;27.80;83.20
49777;DHT22;35673;51.482;7.436;2023-06-22T15:16:26;27.40;83.20
49777;DHT22;35673;51.482;7.436;2023-06-22T15:18:52;27.00;83.60
49777;DHT22;35673;51.482;7.436;2023-06-22T15:21:18;26.60;84.20
49777;DHT22;35673;51.482;7.436;2023-06-22T15:23:43;26.30;85.90
49777;DHT22;35673;51.482;7.436;2023-06-22T15:26:09;26.10;88.00
49777;DHT22;35673;51.482;7.436;2023-06-22T15:28:34;25.90;90.00
49777;DHT22;35673;51.482;7.436;2023-06-22T15:31:02;25.70;89.60
49777;DHT22;35673;51.482;7.436;2023-06-22T15:33:27;25.50;87.80
49777;DHT22;35673;51.482;7.436;2023-06-22T15:35:53;25.20;90.70